Time;durP1;ratioP1;P1;durP2;ratioP2;P2;SDS_P1;SDS_P2;PMS_P1;PMS_P2;Temp;Humidity;BMP_temperature;BMP_pressure;BME280_temperature;BME280_humidity;BME280_pressure;Samples;Min_cycle;Max_cycle;Signal;HPM_P1;HPM_P2
2023/05/16 00:01:11;;;;;;;14.52;3.83;;;;;;;9.26;100.00;101740.44;5301127;28;20043;-64
2023/05/16 00:03:43;;;;;;;14.50;2.95;;;;;;;9.21;100.00;101737.19;5303062;28;20056;-64
2023/05/16 00:06:14;;;;;;;16.90;4.20;;;;;;;9.21;100.00;101737.19;5269092;28;20052;-64
2023/05/16 00:08:45;;;;;;;14.52;3.22;;;;;;;9.19;100.00;101737.28;5268448;28;20648;-64
2023/05/16 00:11:17;;;;;;;15.20;3.72;;;;;;;9.13;100.00;101745.59;5263704;28;20132;-64
2023/05/16 00:13:48;;;;;;;18.92;4.03;;;;;;;9.09;100.00;101738.75;5261901;28;20029;-64
2023/05/16 00:16:20;;;;;;;22.35;4.55;;;;;;;9.06;100.00;101741.56;5253867;28;20487;-64
2023/05/16 00:18:52;;;;;;;14.40;4.15;;;;;;;9.00;100.00;101749.91;5260914;28;20036;-63
2023/05/16 00:21:23;;;;;;;16.42;3.30;;;;;;;8.91;100.00;101747.75;5258968;28;20098;-64
2023/05/16 00:23:55;;;;;;;16.23;3.08;;;;;;;8.88;100.00;101746.13;5253314;28;20642;-64
2023/05/16 00:26:26;;;;;;;20.63;3.90;;;;;;;8.83;100.00;101750.81;5254569;28;20039;-64
2023/05/16 00:28:58;;;;;;;21.30;3.28;;;;;;;8.80;100.00;101745.66;5256146;28;20063;-64
2023/05/16 00:31:29;;;;;;;12.95;3.25;;;;;;;8.76;100.00;101747.66;5262016;28;20024;-64
2023/05/16 00:34:00;;;;;;;14.95;3.53;;;;;;;8.74;100.00;101748.66;5261481;28;20502;-64
2023/05/16 00:36:34;;;;;;;15.88;3.60;;;;;;;8.64;100.00;101743.81;5256711;28;20033;-64
2023/05/16 00:39:06;;;;;;;14.18;2.75;;;;;;;8.60;100.00;101744.09;5259626;28;20044;-64
2023/05/16 00:41:38;;;;;;;19.63;3.53;;;;;;;8.55;100.00;101744.34;5262764;28;21272;-64
2023/05/16 00:44:09;;;;;;;15.50;2.92;;;;;;;8.50;100.00;101746.38;5261162;28;20072;-64
2023/05/16 00:46:41;;;;;;;15.65;3.45;;;;;;;8.45;100.00;101743.09;5265041;28;20036;-64
2023/05/16 00:49:12;;;;;;;12.98;4.13;;;;;;;8.41;100.00;101738.84;5263329;28;20068;-64
2023/05/16 00:51:44;;;;;;;18.30;3.17;;;;;;;8.35;100.00;101742.69;5260293;28;20060;-64
2023/05/16 00:54:16;;;;;;;13.70;3.42;;;;;;;8.31;100.00;101750.94;5260727;28;20035;-64
2023/05/16 00:56:47;;;;;;;19.38;3.40;;;;;;;8.25;100.00;101742.31;5259102;28;20032;-64
2023/05/16 00:59:19;;;;;;;15.73;3.53;;;;;;;8.25;100.00;101752.09;5261745;28;20033;-64
2023/05/16 01:01:51;;;;;;;15.98;2.90;;;;;;;8.19;100.00;101752.44;5261864;28;20489;-64
2023/05/16 01:04:23;;;;;;;14.70;3.03;;;;;;;8.14;100.00;101755.31;5261383;28;20028;-64
2023/05/16 01:06:56;;;;;;;13.07;3.08;;;;;;;8.11;100.00;101750.16;5263200;28;20436;-64
2023/05/16 01:09:27;;;;;;;20.60;3.72;;;;;;;8.10;100.00;101758.22;5263020;28;20395;-64
2023/05/16 01:12:13;;;;;;;10.73;2.35;;;;;;;8.02;100.00;101759.47;5261539;28;20106;-64
2023/05/16 01:14:44;;;;;;;13.45;2.70;;;;;;;7.99;100.00;101759.59;5263191;28;20040;-64
2023/05/16 01:17:25;;;;;;;16.70;3.13;;;;;;;7.97;100.00;101761.47;5258565;28;20033;-64
2023/05/16 01:20:19;;;;;;;15.45;3.47;;;;;;;7.95;100.00;101763.34;5259118;28;20032;-64
2023/05/16 01:22:56;;;;;;;13.38;2.92;;;;;;;7.86;100.00;101758.50;5265190;28;20061;-64
2023/05/16 01:25:49;;;;;;;20.58;3.40;;;;;;;7.80;100.00;101758.81;5258170;28;20029;-64
2023/05/16 01:28:21;;;;;;;14.60;2.78;;;;;;;7.76;100.00;101759.91;5258101;28;20027;-64
2023/05/16 01:30:53;;;;;;;11.90;2.65;;;;;;;7.73;100.00;101762.72;5259557;28;20028;-64
2023/05/16 01:33:24;;;;;;;13.70;2.65;;;;;;;7.68;100.00;101757.66;5261356;28;20395;-64
2023/05/16 01:36:07;;;;;;;17.27;3.63;;;;;;;7.69;100.00;101769.13;5256333;28;20032;-64
2023/05/16 01:38:58;;;;;;;14.88;2.83;;;;;;;7.64;100.00;101772.00;5274503;28;20046;-64
2023/05/16 01:41:44;;;;;;;15.98;2.92;;;;;;;7.60;100.00;101770.44;5257794;28;20036;-65
2023/05/16 01:44:24;;;;;;;18.40;3.13;;;;;;;7.56;100.00;101769.75;5260570;28;20028;-64
2023/05/16 01:46:58;;;;;;;16.70;2.72;;;;;;;7.51;100.00;101771.75;5257988;28;20170;-64
2023/05/16 01:49:39;;;;;;;;;;;;;;;7.57;100.00;101776.75;5260884;28;20093;-65
2023/05/16 01:52:16;;;;;;;14.98;2.80;;;;;;;7.45;100.00;101780.03;5255915;28;19916;-64
2023/05/16 01:54:52;;;;;;;14.13;2.85;;;;;;;7.42;100.00;101782.81;5260832;28;20033;-64
2023/05/16 01:57:25;;;;;;;19.08;2.95;;;;;;;7.39;100.00;101782.97;5255827;28;20505;-64
2023/05/16 01:59:58;;;;;;;20.50;3.20;;;;;;;7.35;100.00;101778.75;5258091;28;20028;-65
2023/05/16 02:02:30;;;;;;;15.55;2.80;;;;;;;7.32;100.00;101781.53;5257090;28;20033;-64
2023/05/16 02:05:01;;;;;;;17.02;2.88;;;;;;;7.32;100.00;101786.84;5272945;28;20050;-64
2023/05/16 02:07:33;;;;;;;13.43;2.60;;;;;;;7.29;100.00;101784.31;5303566;27;20036;-64
2023/05/16 02:10:06;;;;;;;13.93;2.42;;;;;;;7.22;100.00;101792.59;5299335;27;20114;-65
2023/05/16 02:12:37;;;;;;;13.77;3.35;;;;;;;7.23;100.00;101796.97;5298768;27;20020;-64
2023/05/16 02:15:09;;;;;;;14.07;2.67;;;;;;;7.16;100.00;101792.88;5300834;27;20062;-64
2023/05/16 02:17:40;;;;;;;13.52;2.70;;;;;;;7.14;100.00;101799.22;5302600;28;20414;-65
2023/05/16 02:20:12;;;;;;;10.40;3.05;;;;;;;7.11;100.00;101800.19;5298854;27;20028;-64
2023/05/16 02:22:46;;;;;;;13.20;2.60;;;;;;;7.09;100.00;101790.59;5301463;27;20058;-64
2023/05/16 02:25:17;;;;;;;14.98;2.88;;;;;;;7.05;100.00;101798.69;5299740;27;20027;-64
2023/05/16 02:27:49;;;;;;;8.48;2.65;;;;;;;7.01;100.00;101798.91;5308031;28;20050;-64
2023/05/16 02:30:20;;;;;;;13.00;2.83;;;;;;;6.98;100.00;101789.31;5301295;27;20568;-64
2023/05/16 02:32:52;;;;;;;18.75;3.28;;;;;;;6.97;100.00;101799.97;5311839;28;20028;-64
2023/05/16 02:35:24;;;;;;;16.95;3.28;;;;;;;6.94;100.00;101797.47;5301594;27;20032;-64
2023/05/16 02:37:56;;;;;;;12.27;2.85;;;;;;;6.89;100.00;101803.00;5301184;28;20380;-64
2023/05/16 02:40:27;;;;;;;13.60;3.00;;;;;;;6.89;100.00;101796.84;5304147;28;20431;-64
2023/05/16 02:42:58;;;;;;;16.08;2.75;;;;;;;6.87;100.00;101803.06;5308414;28;20401;-64
2023/05/16 02:45:30;;;;;;;19.98;3.10;;;;;;;6.84;100.00;101804.97;5311767;27;20085;-64
2023/05/16 02:48:01;;;;;;;14.93;2.78;;;;;;;6.82;100.00;101807.69;5308395;27;20790;-64
2023/05/16 02:50:33;;;;;;;17.33;2.72;;;;;;;6.82;100.00;101813.00;5303581;27;20028;-64
2023/05/16 02:53:05;;;;;;;17.23;2.60;;;;;;;6.79;100.00;101815.81;5310987;27;20042;-64
2023/05/16 02:55:36;;;;;;;16.73;2.70;;;;;;;6.79;100.00;101818.47;5306143;27;20031;-64
2023/05/16 02:58:07;;;;;;;12.32;2.65;;;;;;;6.75;100.00;101827.50;5297355;28;20031;-64
2023/05/16 03:00:39;;;;;;;15.98;2.90;;;;;;;6.74;100.00;101815.16;5309139;28;20031;-64
2023/05/16 03:03:10;;;;;;;15.65;3.15;;;;;;;6.76;100.00;101829.19;5313262;28;20084;-64
2023/05/16 03:05:42;;;;;;;14.85;2.53;;;;;;;6.75;100.00;101835.44;5308643;27;20059;-64
2023/05/16 03:08:14;;;;;;;14.55;3.10;;;;;;;6.74;100.00;101832.84;5303053;28;20416;-64
2023/05/16 03:10:45;;;;;;;13.98;2.67;;;;;;;6.69;100.00;101838.34;5304083;27;20556;-64
2023/05/16 03:13:17;;;;;;;14.88;3.40;;;;;;;6.65;100.00;101840.31;5301800;27;20084;-64
2023/05/16 03:15:48;;;;;;;14.07;2.33;;;;;;;6.61;100.00;101843.13;5303622;27;20027;-64
2023/05/16 03:18:20;;;;;;;19.60;3.72;;;;;;;6.61;100.00;101838.69;5303750;27;20070;-64
2023/05/16 03:20:52;;;;;;;16.92;2.88;;;;;;;6.59;100.00;101850.31;5305379;28;20482;-64
2023/05/16 03:23:23;;;;;;;17.23;4.30;;;;;;;6.54;100.00;101841.66;5309645;28;20055;-64
2023/05/16 03:25:55;;;;;;;15.15;2.90;;;;;;;6.51;100.00;101847.13;5304843;28;20050;-65
2023/05/16 03:28:26;;;;;;;15.13;3.47;;;;;;;6.48;100.00;101841.03;5302847;28;20035;-64
2023/05/16 03:30:57;;;;;;;17.95;2.70;;;;;;;6.44;100.00;101838.56;5306932;28;20035;-64
2023/05/16 03:33:29;;;;;;;12.60;2.75;;;;;;;6.44;100.00;101842.09;5313685;28;20028;-64
2023/05/16 03:36:00;;;;;;;12.32;2.58;;;;;;;6.44;100.00;101841.22;5309772;28;20040;-64
2023/05/16 03:38:32;;;;;;;12.70;2.75;;;;;;;6.39;100.00;101837.91;5309023;28;20035;-64
2023/05/16 03:41:03;;;;;;;13.05;2.63;;;;;;;6.38;100.00;101850.28;5309132;28;20088;-64
2023/05/16 03:43:35;;;;;;;15.70;4.05;;;;;;;6.35;100.00;101846.91;5309742;28;20038;-64
2023/05/16 03:46:06;;;;;;;12.07;2.67;;;;;;;6.33;100.00;101859.38;5310362;28;20035;-64
2023/05/16 03:48:38;;;;;;;19.35;3.97;;;;;;;6.31;100.00;101856.81;5300864;28;20034;-64
2023/05/16 03:51:09;;;;;;;16.77;2.65;;;;;;;6.29;100.00;101863.97;5304741;28;20039;-64
2023/05/16 03:53:40;;;;;;;15.02;3.10;;;;;;;6.26;100.00;101867.56;5302778;28;20030;-64
2023/05/16 03:56:12;;;;;;;13.43;2.92;;;;;;;6.25;100.00;101868.53;5303063;28;20458;-64
2023/05/16 03:58:43;;;;;;;12.00;2.83;;;;;;;6.23;100.00;101870.38;5297517;28;20032;-64
2023/05/16 04:01:15;;;;;;;10.75;2.63;;;;;;;6.22;100.00;101870.44;5298814;28;20169;-64
2023/05/16 04:03:46;;;;;;;13.02;2.95;;;;;;;6.17;100.00;101870.59;5298767;28;20044;-64
2023/05/16 04:06:18;;;;;;;18.67;3.25;;;;;;;6.16;100.00;101873.34;5264924;28;20053;-64
2023/05/16 04:08:49;;;;;;;12.75;3.05;;;;;;;6.16;100.00;101873.34;5264798;28;20481;-64
2023/05/16 04:11:21;;;;;;;16.08;3.50;;;;;;;6.16;100.00;101868.03;5257786;28;20038;-64
2023/05/16 04:13:53;;;;;;;14.88;2.95;;;;;;;6.15;100.00;101876.91;5258176;28;20086;-64
2023/05/16 04:16:24;;;;;;;15.75;3.53;;;;;;;6.13;100.00;101874.31;5261384;28;20472;-64
2023/05/16 04:18:55;;;;;;;18.70;4.40;;;;;;;6.14;100.00;101878.69;5262072;28;20025;-64
2023/05/16 04:21:27;;;;;;;16.20;3.03;;;;;;;6.12;100.00;101882.31;5260027;28;20033;-64
2023/05/16 04:23:58;;;;;;;17.55;3.35;;;;;;;6.15;100.00;101884.84;5263884;28;20043;-64
2023/05/16 04:26:30;;;;;;;13.38;3.50;;;;;;;6.11;100.00;101886.75;5259413;28;20048;-64
2023/05/16 04:29:02;;;;;;;15.15;3.08;;;;;;;6.11;100.00;101892.06;5258880;28;20036;-64
2023/05/16 04:31:34;;;;;;;14.20;3.25;;;;;;;6.10;100.00;101890.34;5262405;28;20029;-64
2023/05/16 04:34:05;;;;;;;11.40;3.15;;;;;;;6.12;100.00;101892.91;5260500;28;20024;-64
2023/05/16 04:36:37;;;;;;;22.40;3.63;;;;;;;6.10;100.00;101898.31;5258012;28;20721;-64
2023/05/16 04:39:08;;;;;;;12.65;3.63;;;;;;;6.09;100.00;101894.78;5258391;28;20040;-64
2023/05/16 04:41:40;;;;;;;14.40;3.22;;;;;;;6.13;100.00;101907.91;5257651;28;20131;-64
2023/05/16 04:44:11;;;;;;;15.85;3.17;;;;;;;6.13;100.00;101899.97;5263221;28;20565;-64
2023/05/16 04:46:43;;;;;;;16.30;3.65;;;;;;;6.15;100.00;101903.41;5266106;28;21524;-64
2023/05/16 04:49:14;;;;;;;17.20;3.10;;;;;;;6.17;100.00;101901.56;5256512;28;20032;-64
2023/05/16 04:51:47;;;;;;;12.82;3.42;;;;;;;6.18;100.00;101912.09;5260265;28;20367;-64
2023/05/16 04:54:18;;;;;;;13.25;3.33;;;;;;;6.20;100.00;101915.53;5262710;28;20740;-64
2023/05/16 04:56:50;;;;;;;14.70;3.30;;;;;;;6.25;100.00;101925.94;5257498;28;20198;-64
2023/05/16 04:59:21;;;;;;;18.42;4.00;;;;;;;6.26;100.00;101919.72;5261118;28;20021;-64
2023/05/16 05:01:53;;;;;;;11.18;3.05;;;;;;;6.31;100.00;101922.19;5260845;28;20036;-64
2023/05/16 05:04:24;;;;;;;14.15;3.70;;;;;;;6.35;100.00;101931.72;5258642;28;20064;-64
2023/05/16 05:06:56;;;;;;;15.20;3.10;;;;;;;6.40;100.00;101933.25;5263385;28;20059;-65
2023/05/16 05:09:28;;;;;;;10.00;2.80;;;;;;;6.43;100.00;101927.84;5263921;28;20028;-64
2023/05/16 05:11:59;;;;;;;14.05;3.47;;;;;;;6.49;100.00;101924.06;5264224;28;20386;-64
2023/05/16 05:14:30;;;;;;;15.10;2.70;;;;;;;6.53;100.00;101920.38;5269557;28;20037;-64
2023/05/16 05:17:02;;;;;;;16.20;3.03;;;;;;;6.57;100.00;101918.44;5259763;28;20356;-64
2023/05/16 05:19:33;;;;;;;13.70;3.10;;;;;;;6.62;100.00;101919.13;5269661;28;20020;-64
2023/05/16 05:22:04;;;;;;;15.38;3.85;;;;;;;6.69;100.00;101917.91;5262056;28;20021;-64
2023/05/16 05:24:36;;;;;;;13.88;3.00;;;;;;;6.74;100.00;101923.88;5261434;28;20538;-64
2023/05/16 05:27:07;;;;;;;16.67;3.33;;;;;;;6.82;100.00;101926.22;5265981;28;20021;-64
2023/05/16 05:29:39;;;;;;;14.38;3.10;;;;;;;6.87;100.00;101934.84;5256656;28;20130;-64
2023/05/16 05:32:11;;;;;;;12.52;3.05;;;;;;;6.96;100.00;101936.22;5255746;28;20255;-64
2023/05/16 05:34:42;;;;;;;14.63;3.70;;;;;;;7.00;100.00;101937.81;5259504;28;20031;-64
2023/05/16 05:37:14;;;;;;;13.25;3.22;;;;;;;7.05;100.00;101938.47;5262878;28;20395;-64
2023/05/16 05:39:45;;;;;;;18.05;3.50;;;;;;;7.12;100.00;101939.06;5259499;28;20129;-64
2023/05/16 05:42:17;;;;;;;16.05;3.03;;;;;;;7.17;100.00;101945.91;5260889;28;20514;-64
2023/05/16 05:44:48;;;;;;;10.63;2.92;;;;;;;7.23;100.00;101948.28;5262724;28;20032;-64
2023/05/16 05:47:20;;;;;;;16.88;3.60;;;;;;;7.30;100.00;101948.84;5260975;28;20028;-64
2023/05/16 05:49:52;;;;;;;11.80;3.97;;;;;;;7.35;100.00;101948.66;5260477;28;20601;-64
2023/05/16 05:52:23;;;;;;;11.63;2.97;;;;;;;7.41;100.00;101946.56;5264310;28;20025;-64
2023/05/16 05:54:54;;;;;;;13.90;3.00;;;;;;;7.48;100.00;101952.47;5260154;28;20782;-64
2023/05/16 05:57:26;;;;;;;12.80;2.70;;;;;;;7.56;100.00;101950.31;5257729;28;20076;-64
2023/05/16 05:59:57;;;;;;;12.07;2.42;;;;;;;7.64;100.00;101957.94;5254407;28;20028;-64
2023/05/16 06:02:29;;;;;;;8.40;2.70;;;;;;;7.71;100.00;101953.19;5260486;28;20029;-64
2023/05/16 06:05:00;;;;;;;14.63;2.78;;;;;;;7.78;100.00;101960.81;5259029;28;20701;-64
2023/05/16 06:07:31;;;;;;;14.57;2.85;;;;;;;7.87;100.00;101964.84;5259172;28;20256;-65
2023/05/16 06:10:04;;;;;;;13.77;2.92;;;;;;;7.94;100.00;101965.38;5258302;28;20171;-64
2023/05/16 06:12:35;;;;;;;20.27;5.10;;;;;;;7.99;100.00;101960.72;5260037;28;20032;-65
2023/05/16 06:15:07;;;;;;;13.80;2.90;;;;;;;8.10;100.00;101963.75;5259530;28;20554;-65
2023/05/16 06:17:39;;;;;;;12.48;3.10;;;;;;;8.12;100.00;101969.00;5260544;28;20033;-65
2023/05/16 06:20:10;;;;;;;11.95;2.75;;;;;;;8.18;100.00;101974.84;5260083;28;20040;-65
2023/05/16 06:22:42;;;;;;;13.55;2.78;;;;;;;8.23;100.00;101983.47;5259994;28;20048;-64
2023/05/16 06:25:13;;;;;;;15.23;2.60;;;;;;;8.32;100.00;101974.22;5260356;28;20434;-65
2023/05/16 06:27:45;;;;;;;13.98;2.40;;;;;;;8.38;100.00;101976.56;5259638;28;20039;-64
2023/05/16 06:30:16;;;;;;;12.68;2.50;;;;;;;8.48;100.00;101974.34;5262494;28;20028;-64
2023/05/16 06:32:48;;;;;;;11.00;2.92;;;;;;;8.56;100.00;101974.81;5265360;28;20013;-64
2023/05/16 06:35:19;;;;;;;9.95;2.97;;;;;;;8.68;100.00;101980.47;5262428;28;20032;-64
2023/05/16 06:37:51;;;;;;;11.85;2.72;;;;;;;8.76;100.00;101975.59;5257156;28;20106;-64
2023/05/16 06:40:22;;;;;;;14.15;2.60;;;;;;;8.82;100.00;101981.50;5265727;28;20486;-64
2023/05/16 06:42:53;;;;;;;8.98;2.40;;;;;;;8.97;100.00;101974.50;5272278;28;20052;-64
2023/05/16 06:45:25;;;;;;;12.57;2.08;;;;;;;9.03;100.00;101974.19;5269056;28;20476;-64
2023/05/16 06:47:57;;;;;;;8.48;2.30;;;;;;;9.11;100.00;101970.25;5269533;28;20017;-64
2023/05/16 06:50:28;;;;;;;8.95;2.00;;;;;;;9.15;100.00;101970.03;5262805;28;20044;-64
2023/05/16 06:53:00;;;;;;;16.13;3.10;;;;;;;9.21;100.00;101967.03;5267094;28;20047;-64
2023/05/16 06:55:34;;;;;;;12.13;2.10;;;;;;;9.29;100.00;101976.44;5273557;28;20039;-64
2023/05/16 06:58:06;;;;;;;10.75;1.98;;;;;;;9.32;100.00;101981.59;5259480;28;20025;-64
2023/05/16 07:00:37;;;;;;;8.07;1.80;;;;;;;9.38;100.00;101974.16;5269222;28;20074;-64
2023/05/16 07:03:08;;;;;;;12.35;2.10;;;;;;;9.43;100.00;101976.53;5269982;28;20048;-64
2023/05/16 07:05:40;;;;;;;7.40;1.67;;;;;;;9.49;100.00;101970.91;5261393;28;20045;-64
2023/05/16 07:08:12;;;;;;;11.50;1.98;;;;;;;9.54;100.00;101970.66;5270045;28;20374;-64
2023/05/16 07:10:43;;;;;;;8.88;1.60;;;;;;;9.60;100.00;101972.97;5256366;28;20032;-64
2023/05/16 07:13:15;;;;;;;11.40;1.73;;;;;;;9.67;100.00;101977.03;5268110;28;20542;-64
2023/05/16 07:15:46;;;;;;;8.05;1.58;;;;;;;9.81;100.00;101978.94;5263975;28;20036;-64
2023/05/16 07:18:18;;;;;;;12.13;2.28;;;;;;;9.94;100.00;101979.13;5269927;28;20090;-65
2023/05/16 07:20:49;;;;;;;19.55;3.03;;;;;;;10.05;100.00;101978.50;5271708;28;20035;-64
2023/05/16 07:23:21;;;;;;;9.88;1.63;;;;;;;10.22;100.00;101978.44;5266082;28;20036;-64
2023/05/16 07:25:52;;;;;;;8.05;1.45;;;;;;;10.37;100.00;101982.06;5257650;28;20399;-64
2023/05/16 07:28:24;;;;;;;9.77;1.42;;;;;;;10.48;100.00;101976.13;5264314;28;20114;-65
2023/05/16 07:30:57;;;;;;;7.25;1.20;;;;;;;10.57;100.00;101987.09;5268950;28;20384;-64
2023/05/16 07:33:28;;;;;;;7.15;1.50;;;;;;;10.66;100.00;101982.16;5271504;28;20073;-63
2023/05/16 07:36:00;;;;;;;10.20;1.40;;;;;;;10.75;100.00;101995.84;5260678;28;20451;-64
2023/05/16 07:38:32;;;;;;;10.80;1.65;;;;;;;10.87;100.00;101996.91;5269097;28;20394;-64
2023/05/16 07:41:03;;;;;;;7.53;1.40;;;;;;;10.88;100.00;101987.13;5268910;28;20039;-64
2023/05/16 07:43:35;;;;;;;6.82;1.38;;;;;;;11.02;100.00;101981.78;5263675;28;20028;-64
2023/05/16 07:46:07;;;;;;;11.88;1.92;;;;;;;11.06;100.00;101994.00;5266472;28;20145;-64
2023/05/16 07:48:38;;;;;;;8.80;1.65;;;;;;;11.14;100.00;101994.44;5268760;28;20028;-64
2023/05/16 07:51:09;;;;;;;8.30;1.30;;;;;;;11.26;100.00;101998.16;5268657;28;20042;-64
2023/05/16 07:53:41;;;;;;;6.10;1.00;;;;;;;11.32;100.00;101991.59;5273715;28;20029;-64
2023/05/16 07:56:12;;;;;;;5.35;1.05;;;;;;;11.31;100.00;101990.75;5274584;28;20028;-64
2023/05/16 07:58:44;;;;;;;7.90;1.30;;;;;;;11.32;100.00;102000.47;5277047;28;20032;-64
2023/05/16 08:01:16;;;;;;;8.13;1.33;;;;;;;11.29;100.00;101989.94;5273662;28;20452;-64
2023/05/16 08:03:47;;;;;;;10.18;2.13;;;;;;;11.42;100.00;101995.41;5275886;28;20040;-64
2023/05/16 08:06:18;;;;;;;7.13;1.30;;;;;;;11.40;100.00;101994.66;5271833;28;20556;-64
2023/05/16 08:08:50;;;;;;;7.72;1.23;;;;;;;11.45;100.00;101992.56;5274063;28;20051;-64
2023/05/16 08:11:21;;;;;;;9.23;1.70;;;;;;;11.46;100.00;101994.25;5277745;28;20027;-64
2023/05/16 08:13:52;;;;;;;7.70;1.40;;;;;;;11.47;100.00;101997.81;5274827;28;20486;-64
2023/05/16 08:16:24;;;;;;;13.95;1.95;;;;;;;11.52;100.00;101996.53;5269453;28;20394;-64
2023/05/16 08:18:55;;;;;;;6.75;1.20;;;;;;;11.54;100.00;102004.47;5265884;28;20074;-65
2023/05/16 08:21:27;;;;;;;6.80;1.35;;;;;;;11.55;100.00;102001.72;5265936;28;20052;-64
2023/05/16 08:23:58;;;;;;;8.50;1.73;;;;;;;11.66;100.00;102000.16;5268956;28;20378;-64
2023/05/16 08:26:29;;;;;;;11.02;1.35;;;;;;;11.68;100.00;102001.81;5284680;28;20517;-64
2023/05/16 08:29:01;;;;;;;9.35;1.50;;;;;;;11.67;100.00;102002.75;5277941;28;20063;-64
2023/05/16 08:31:32;;;;;;;8.70;1.50;;;;;;;11.74;100.00;101998.75;5284225;28;20020;-65
2023/05/16 08:34:05;;;;;;;3.65;1.00;;;;;;;11.76;100.00;102004.00;5268073;28;20055;-65
2023/05/16 08:36:37;;;;;;;8.35;1.23;;;;;;;11.81;100.00;102001.03;5274331;28;20036;-64
2023/05/16 08:39:11;;;;;;;7.00;1.48;;;;;;;11.98;100.00;101991.97;5266472;28;20025;-64
2023/05/16 08:41:43;;;;;;;5.40;1.23;;;;;;;12.18;100.00;101994.22;5270082;28;20040;-64
2023/05/16 08:44:20;;;;;;;8.13;1.52;;;;;;;12.26;100.00;101991.91;5274653;28;20029;-64
2023/05/16 08:46:52;;;;;;;4.93;1.55;;;;;;;12.39;100.00;101989.28;5274795;28;20036;-64
2023/05/16 08:49:27;;;;;;;6.90;1.40;;;;;;;12.45;100.00;101998.72;5270662;28;20387;-64
2023/05/16 08:52:00;;;;;;;7.10;1.55;;;;;;;12.25;100.00;101995.53;5272815;28;20036;-64
2023/05/16 08:54:33;;;;;;;6.45;1.25;;;;;;;12.26;100.00;101991.91;5274844;28;20467;-64
2023/05/16 08:57:05;;;;;;;9.75;1.80;;;;;;;12.39;100.00;101991.97;5269719;28;20043;-64
2023/05/16 08:59:37;;;;;;;7.97;1.50;;;;;;;12.39;100.00;101999.13;5270410;28;20557;-64
2023/05/16 09:02:08;;;;;;;6.72;1.77;;;;;;;12.41;100.00;101983.84;5264338;28;20029;-64
2023/05/16 09:04:41;;;;;;;6.13;1.38;;;;;;;12.55;100.00;101987.28;5270702;28;20778;-64
2023/05/16 09:07:12;;;;;;;8.63;1.27;;;;;;;12.63;100.00;101983.25;5305027;28;20044;-64
2023/05/16 09:09:43;;;;;;;5.63;1.30;;;;;;;12.80;100.00;101992.84;5312762;27;20366;-64
2023/05/16 09:12:15;;;;;;;6.90;1.40;;;;;;;12.72;100.00;101988.84;5312598;27;20103;-64
2023/05/16 09:14:46;;;;;;;5.38;1.27;;;;;;;12.63;100.00;102000.16;5318697;27;20038;-64
2023/05/16 09:17:18;;;;;;;6.50;1.58;;;;;;;12.56;100.00;102001.56;5311893;27;20501;-64
2023/05/16 09:19:51;;;;;;;8.35;1.33;;;;;;;12.56;100.00;101993.53;5312335;27;20042;-64
2023/05/16 09:22:23;;;;;;;6.40;1.08;;;;;;;12.65;100.00;101986.69;5320098;27;20035;-64
2023/05/16 09:24:55;;;;;;;7.45;1.38;;;;;;;12.76;100.00;101992.19;5309134;27;20082;-65
2023/05/16 09:27:30;;;;;;;5.03;1.25;;;;;;;12.88;100.00;101998.53;5321368;27;20030;-64
2023/05/16 09:30:01;;;;;;;6.97;1.23;;;;;;;12.93;100.00;101981.19;5312104;28;20027;-64
2023/05/16 09:32:32;;;;;;;3.88;0.90;;;;;;;12.90;100.00;101988.56;5318019;27;20023;-65
2023/05/16 09:35:04;;;;;;;4.55;1.00;;;;;;;12.94;100.00;101988.28;5309199;28;20031;-64
2023/05/16 09:37:35;;;;;;;6.43;1.08;;;;;;;13.08;100.00;101979.28;5304025;27;20024;-64
2023/05/16 09:40:09;;;;;;;6.05;1.20;;;;;;;13.18;100.00;101984.00;5315356;27;20032;-64
2023/05/16 09:42:45;;;;;;;5.65;1.05;;;;;;;13.30;100.00;101980.50;5313132;27;20080;-64
2023/05/16 09:45:16;;;;;;;5.78;1.45;;;;;;;13.50;100.00;101988.00;5312228;27;20031;-65
2023/05/16 09:47:48;;;;;;;5.35;1.10;;;;;;;13.58;100.00;101987.44;5306430;28;20020;-63
2023/05/16 09:50:19;;;;;;;6.85;1.40;;;;;;;13.45;100.00;101986.59;5308779;28;20098;-64
2023/05/16 09:52:51;;;;;;;5.90;1.23;;;;;;;13.28;100.00;101996.63;5314534;27;20089;-65
2023/05/16 09:55:22;;;;;;;6.97;1.00;;;;;;;13.09;100.00;102002.41;5309519;27;20085;-65
2023/05/16 09:57:54;;;;;;;7.10;1.50;;;;;;;12.99;100.00;101995.13;5313247;27;20034;-65
2023/05/16 10:00:31;;;;;;;4.78;1.20;;;;;;;12.89;100.00;102002.94;5305890;28;20077;-64
2023/05/16 10:03:02;;;;;;;6.45;1.27;;;;;;;12.93;100.00;101996.41;5316371;27;20031;-65
2023/05/16 10:05:35;;;;;;;11.30;1.90;;;;;;;13.07;100.00;101979.38;5292157;27;20047;-65
2023/05/16 10:08:07;;;;;;;7.28;1.23;;;;;;;13.21;100.00;101986.44;5265680;28;20035;-64
2023/05/16 10:10:38;;;;;;;5.68;1.10;;;;;;;13.13;100.00;101998.59;5266589;28;20017;-66
2023/05/16 10:13:11;;;;;;;6.38;1.30;;;;;;;13.18;100.00;101990.22;5277292;28;20029;-64
2023/05/16 10:15:45;;;;;;;6.38;1.17;;;;;;;13.27;100.00;101991.38;5266457;28;20389;-65
2023/05/16 10:18:18;;;;;;;4.60;0.90;;;;;;;13.30;100.00;101983.16;5273504;28;20434;-65
2023/05/16 10:20:54;;;;;;;7.25;0.90;;;;;;;13.41;100.00;101980.59;5260520;28;20226;-65
2023/05/16 10:23:26;;;;;;;7.15;1.05;;;;;;;13.51;100.00;101980.81;5264586;28;20021;-64
2023/05/16 10:26:01;;;;;;;7.05;1.13;;;;;;;13.78;100.00;101977.97;5268362;28;20081;-64
2023/05/16 10:28:34;;;;;;;4.88;0.85;;;;;;;13.94;100.00;101977.75;5267824;28;20133;-65
2023/05/16 10:31:07;;;;;;;6.05;1.17;;;;;;;13.97;100.00;101976.66;5279233;28;20112;-65
2023/05/16 10:33:39;;;;;;;5.07;1.00;;;;;;;13.88;100.00;101987.09;5260912;28;20032;-65
2023/05/16 10:36:12;;;;;;;6.57;1.13;;;;;;;13.71;100.00;101987.41;5260493;28;20029;-65
2023/05/16 10:38:45;;;;;;;3.63;0.93;;;;;;;13.64;100.00;101980.81;5280404;28;20020;-64
2023/05/16 10:41:18;;;;;;;4.13;0.90;;;;;;;13.84;100.00;101977.53;5275593;28;20093;-65
2023/05/16 10:43:56;;;;;;;5.15;0.93;;;;;;;14.09;100.00;101967.69;5270849;28;20028;-64
2023/05/16 10:46:28;;;;;;;5.63;0.80;;;;;;;14.17;100.00;101972.50;5276692;28;20071;-65
2023/05/16 10:49:18;;;;;;;5.15;1.10;;;;;;;14.32;100.00;101987.47;5257483;28;20111;-64
2023/05/16 10:52:11;;;;;;;3.63;1.00;;;;;;;14.25;100.00;101978.19;5270754;28;20458;-64
2023/05/16 10:54:49;;;;;;;3.72;0.80;;;;;;;14.12;100.00;101976.38;5258295;28;20025;-65
2023/05/16 10:57:22;;;;;;;5.82;1.00;;;;;;;14.11;100.00;101979.16;5274442;28;20039;-64
2023/05/16 10:59:57;;;;;;;4.68;0.98;;;;;;;14.18;100.00;101980.44;5271908;28;20539;-64
2023/05/16 11:02:34;;;;;;;5.38;1.30;;;;;;;14.29;100.00;101976.97;5267355;28;20056;-65
2023/05/16 11:05:07;;;;;;;5.32;1.45;;;;;;;14.38;100.00;101981.66;5275242;28;20503;-65
2023/05/16 11:07:39;;;;;;;5.13;1.50;;;;;;;14.36;100.00;101978.19;5265437;28;20028;-64
2023/05/16 11:10:15;;;;;;;4.38;1.10;;;;;;;14.27;100.00;101986.97;5269323;28;20024;-65
2023/05/16 11:12:51;;;;;;;7.93;1.25;;;;;;;14.23;100.00;101989.03;5276621;28;20028;-65
2023/05/16 11:15:25;;;;;;;5.72;1.10;;;;;;;14.23;100.00;101991.69;5272991;28;20025;-65
2023/05/16 11:18:07;;;;;;;5.18;1.33;;;;;;;14.30;100.00;101984.91;5271313;28;20032;-65
2023/05/16 11:20:40;;;;;;;5.97;1.08;;;;;;;14.50;100.00;101975.34;5268944;28;20028;-65
2023/05/16 11:23:17;;;;;;;5.82;1.25;;;;;;;14.61;100.00;101982.66;5267731;28;20037;-65
2023/05/16 11:25:59;;;;;;;8.13;1.30;;;;;;;14.72;100.00;101986.34;5267555;28;20180;-65
2023/05/16 11:28:31;;;;;;;6.38;1.00;;;;;;;14.75;100.00;101986.97;5266576;28;20033;-65
2023/05/16 11:31:04;;;;;;;5.55;1.17;;;;;;;14.75;100.00;101984.28;5268327;28;20040;-66
2023/05/16 11:33:38;;;;;;;7.55;1.38;;;;;;;14.97;100.00;101977.25;5282259;28;20016;-65
2023/05/16 11:36:11;;;;;;;4.55;1.33;;;;;;;14.90;100.00;101993.00;5271859;28;20044;-65
2023/05/16 11:38:43;;;;;;;7.57;1.20;;;;;;;14.74;100.00;101992.47;5279858;28;20025;-64
2023/05/16 11:41:16;;;;;;;4.90;1.10;;;;;;;14.59;100.00;101992.63;5272346;28;20109;-65